Time;durP1;ratioP1;P1;durP2;ratioP2;P2;SDS_P1;SDS_P2;PMS_P1;PMS_P2;Temp;Humidity;BMP_temperature;BMP_pressure;BME280_temperature;BME280_humidity;BME280_pressure;Samples;Min_cycle;Max_cycle;Signal;HPM_P1;HPM_P2
2021/11/07 00:04:42;;;;;;;3.38;2.40;;;13.50;74.80;;;;;;5051389;28;20037;-81
2021/11/07 00:07:14;;;;;;;3.25;2.40;;;13.40;74.70;;;;;;5057924;28;20037;-80
2021/11/07 00:09:50;;;;;;;3.13;2.50;;;13.50;74.80;;;;;;5070937;28;20041;-80
2021/11/07 00:12:21;;;;;;;2.92;2.45;;;13.50;74.90;;;;;;5054284;28;20048;-80
2021/11/07 00:14:50;;;;;;;2.67;2.40;;;13.50;74.90;;;;;;5055260;28;20033;-81
2021/11/07 00:17:20;;;;;;;2.55;2.35;;;13.40;74.80;;;;;;5071371;28;20021;-81
2021/11/07 00:19:57;;;;;;;3.80;2.70;;;13.50;74.90;;;;;;5054792;28;20033;-81
2021/11/07 00:27:50;;;;;;;2.80;2.38;;;13.50;74.90;;;;;;5060446;28;20103;-80
2021/11/07 00:38:03;;;;;;;2.83;2.38;;;13.40;74.80;;;;;;5053306;28;20087;-80
2021/11/07 00:43:37;;;;;;;2.63;2.38;;;13.40;74.90;;;;;;5055973;28;20033;-81
2021/11/07 00:48:57;;;;;;;2.63;2.35;;;13.40;74.90;;;;;;5053650;28;20527;-81
2021/11/07 00:57:18;;;;;;;2.75;2.30;;;13.40;74.80;;;;;;5026785;28;20044;-81
2021/11/07 01:00:03;;;;;;;2.38;2.17;;;13.50;74.90;;;;;;5040247;28;20041;-81
2021/11/07 01:02:32;;;;;;;2.63;2.20;;;13.40;74.90;;;;;;5053954;28;20033;-81
2021/11/07 01:04:59;;;;;;;2.42;2.08;;;13.40;74.90;;;;;;5053064;28;20424;-80
2021/11/07 01:07:26;;;;;;;2.88;2.30;;;13.40;75.00;;;;;;5054332;28;20037;-82
2021/11/07 01:09:53;;;;;;;3.17;2.50;;;13.40;75.00;;;;;;5052989;28;20116;-81
2021/11/07 01:12:21;;;;;;;2.58;2.30;;;13.40;75.00;;;;;;5053336;28;20029;-80
2021/11/07 01:14:50;;;;;;;2.92;2.47;;;13.40;75.00;;;;;;5053732;28;20083;-80
2021/11/07 01:17:16;;;;;;;3.17;2.42;;;13.40;75.00;;;;;;5052758;28;20033;-80
2021/11/07 01:19:42;;;;;;;3.10;2.33;;;13.40;75.00;;;;;;5053953;28;20395;-81
2021/11/07 01:22:14;;;;;;;2.55;2.35;;;13.40;75.00;;;;;;5052520;28;20043;-81
2021/11/07 01:24:48;;;;;;;2.90;2.53;;;13.40;75.00;;;;;;5054503;28;20377;-81
2021/11/07 01:29:46;;;;;;;3.10;2.50;;;13.40;75.00;;;;;;5053622;28;20043;-81
2021/11/07 01:32:14;;;;;;;3.47;2.70;;;13.40;75.00;;;;;;5052890;28;20082;-80
2021/11/07 01:34:57;;;;;;;3.30;2.88;;;13.40;75.00;;;;;;5053596;28;20045;-80
2021/11/07 01:37:27;;;;;;;3.25;2.70;;;13.40;75.00;;;;;;5056063;28;20406;-81
2021/11/07 01:42:33;;;;;;;3.83;3.00;;;13.40;75.00;;;;;;5055077;28;20025;-80
2021/11/07 01:45:06;;;;;;;3.10;2.63;;;13.40;75.00;;;;;;5053389;28;20043;-80
2021/11/07 01:47:38;;;;;;;3.30;2.63;;;13.40;75.00;;;;;;5053550;28;20033;-81
2021/11/07 01:50:06;;;;;;;3.25;2.90;;;13.40;75.00;;;;;;5053014;28;20036;-81
2021/11/07 01:52:38;;;;;;;4.07;3.20;;;13.40;75.10;;;;;;5068845;28;20036;-81
2021/11/07 01:55:05;;;;;;;4.18;3.10;;;13.40;75.10;;;;;;5052705;28;20025;-81
2021/11/07 01:57:34;;;;;;;4.63;3.13;;;13.40;75.10;;;;;;5053165;28;20416;-82
2021/11/07 02:00:08;;;;;;;4.03;3.22;;;13.40;75.20;;;;;;5052741;28;20021;-82
2021/11/07 02:02:36;;;;;;;3.88;3.00;;;13.40;75.10;;;;;;5054304;28;20071;-82
2021/11/07 02:05:03;;;;;;;3.58;3.17;;;13.40;75.10;;;;;;5054189;28;20031;-81
2021/11/07 02:07:30;;;;;;;4.00;3.05;;;13.40;75.10;;;;;;5052813;28;20163;-83
2021/11/07 02:09:59;;;;;;;5.65;3.45;;;13.40;75.10;;;;;;5052847;28;20126;-83
2021/11/07 02:12:24;;;;;;;4.97;3.85;;;13.40;75.80;;;;;;5052764;28;20039;-83
2021/11/07 02:14:50;;;;;;;4.13;3.22;;;13.40;75.10;;;;;;5052854;28;20119;-83
2021/11/07 02:17:16;;;;;;;4.40;3.70;;;13.40;75.20;;;;;;5036788;28;20381;-83
2021/11/07 02:19:44;;;;;;;5.00;3.67;;;13.40;75.20;;;;;;5052681;28;20108;-81
2021/11/07 02:22:10;;;;;;;3.97;3.38;;;13.40;75.20;;;;;;5036338;28;20029;-82
2021/11/07 02:24:39;;;;;;;4.28;3.40;;;13.40;75.20;;;;;;5053025;28;20071;-84
2021/11/07 02:27:05;;;;;;;5.20;4.00;;;13.40;75.30;;;;;;5053838;28;20098;-81
2021/11/07 02:29:33;;;;;;;4.55;3.80;;;13.40;75.20;;;;;;5052505;28;20123;-82
2021/11/07 02:31:59;;;;;;;5.07;3.60;;;13.40;75.20;;;;;;5053999;28;20037;-82
2021/11/07 02:34:28;;;;;;;5.13;3.83;;;13.40;75.30;;;;;;5052620;28;20021;-83
2021/11/07 02:36:55;;;;;;;5.20;4.28;;;13.40;75.30;;;;;;5069710;28;20043;-81
2021/11/07 02:39:21;;;;;;;5.40;4.22;;;13.40;75.30;;;;;;5053017;28;20029;-84
2021/11/07 02:41:48;;;;;;;4.70;4.20;;;13.40;75.30;;;;;;5052933;28;20078;-84
2021/11/07 02:44:34;;;;;;;5.15;4.22;;;13.40;75.30;;;;;;5052814;28;20025;-83
2021/11/07 02:47:01;;;;;;;5.78;4.35;;;13.40;75.60;;;;;;5052753;28;20066;-83
2021/11/07 02:49:27;;;;;;;5.30;4.10;;;13.40;75.30;;;;;;5052650;28;20041;-83
2021/11/07 02:52:00;;;;;;;4.70;3.80;;;13.40;75.30;;;;;;5052664;28;20496;-84
2021/11/07 02:54:26;;;;;;;5.43;4.18;;;13.40;75.30;;;;;;5052949;28;20059;-84
2021/11/07 02:56:54;;;;;;;4.85;4.25;;;13.40;75.30;;;;;;5052684;28;20108;-83
2021/11/07 02:59:25;;;;;;;5.60;4.75;;;13.40;75.30;;;;;;5052930;28;20499;-84
2021/11/07 03:01:53;;;;;;;5.43;4.85;;;13.40;75.30;;;;;;5055789;28;20124;-83
2021/11/07 03:04:19;;;;;;;4.97;4.38;;;13.40;75.30;;;;;;5040366;28;20029;-83
2021/11/07 03:06:45;;;;;;;5.40;4.85;;;13.40;75.30;;;;;;5039230;28;20079;-83
2021/11/07 03:09:22;;;;;;;5.20;4.53;;;13.40;75.30;;;;;;5038995;28;20044;-84
2021/11/07 03:11:50;;;;;;;6.05;4.45;;;13.40;75.40;;;;;;5056316;28;20094;-83
2021/11/07 03:14:30;;;;;;;5.15;4.20;;;13.40;75.30;;;;;;5056007;28;20028;-83
2021/11/07 03:16:57;;;;;;;5.22;4.65;;;13.40;75.40;;;;;;5056648;28;20068;-84
2021/11/07 03:19:24;;;;;;;5.85;4.93;;;13.40;75.30;;;;;;5072528;28;20028;-84
2021/11/07 03:21:52;;;;;;;5.07;4.55;;;13.40;75.30;;;;;;5056121;28;20029;-83
2021/11/07 03:24:18;;;;;;;5.38;4.45;;;13.40;75.40;;;;;;5055733;28;20044;-84
2021/11/07 03:26:45;;;;;;;6.20;5.10;;;13.40;75.40;;;;;;5055902;28;20045;-83
2021/11/07 03:29:12;;;;;;;5.28;4.43;;;13.40;75.40;;;;;;5039977;28;20393;-84
2021/11/07 03:34:13;;;;;;;5.97;5.05;;;13.40;75.30;;;;;;5056383;28;20077;-83
2021/11/07 03:36:44;;;;;;;6.37;5.40;;;13.40;75.30;;;;;;5057196;28;20083;-83
2021/11/07 03:39:11;;;;;;;6.95;5.10;;;13.50;75.40;;;;;;5040044;28;20032;-83
2021/11/07 03:41:39;;;;;;;5.55;4.38;;;13.50;75.40;;;;;;5055824;28;20029;-82
2021/11/07 03:44:06;;;;;;;5.80;4.75;;;13.50;75.40;;;;;;5072016;28;20029;-82
2021/11/07 03:46:32;;;;;;;6.13;5.03;;;13.50;75.40;;;;;;5055190;28;20052;-84
2021/11/07 03:48:58;;;;;;;5.45;4.40;;;13.50;75.40;;;;;;5055187;28;20071;-84
2021/11/07 03:51:27;;;;;;;5.25;4.65;;;13.50;75.40;;;;;;5055180;28;20067;-83
2021/11/07 03:53:53;;;;;;;6.32;5.43;;;13.50;75.40;;;;;;5055728;28;20060;-83
2021/11/07 03:56:19;;;;;;;6.57;5.35;;;13.50;75.40;;;;;;5055250;28;20063;-83
2021/11/07 03:58:44;;;;;;;6.10;5.47;;;13.50;75.40;;;;;;5038898;28;20040;-83
2021/11/07 04:01:10;;;;;;;6.78;5.22;;;13.50;75.40;;;;;;5055087;28;20021;-82
2021/11/07 04:03:36;;;;;;;6.50;4.53;;;13.50;75.40;;;;;;5055003;28;20358;-82
2021/11/07 04:06:02;;;;;;;7.03;5.38;;;13.50;75.40;;;;;;5055940;28;20025;-83
2021/11/07 04:08:28;;;;;;;6.47;5.35;;;13.50;75.40;;;;;;5054967;28;20041;-83
2021/11/07 04:10:55;;;;;;;5.82;5.00;;;13.50;75.40;;;;;;5055022;28;20033;-84
2021/11/07 04:13:21;;;;;;;6.03;5.22;;;13.50;75.40;;;;;;5054875;28;20033;-84
2021/11/07 04:15:47;;;;;;;5.88;5.18;;;13.50;75.40;;;;;;5038279;28;20069;-84
2021/11/07 04:18:13;;;;;;;6.22;5.63;;;13.50;75.40;;;;;;5054809;28;20069;-84
2021/11/07 04:20:39;;;;;;;6.53;5.20;;;13.50;75.40;;;;;;5054872;28;20029;-84
2021/11/07 04:23:05;;;;;;;7.88;5.65;;;13.50;75.40;;;;;;5054685;28;20029;-83
2021/11/07 04:25:32;;;;;;;6.30;4.95;;;13.60;75.40;;;;;;5055288;28;20506;-84
2021/11/07 04:27:58;;;;;;;6.47;4.70;;;13.50;75.40;;;;;;5054709;28;20128;-84
2021/11/07 04:30:24;;;;;;;6.55;5.13;;;13.50;75.40;;;;;;5071492;28;20061;-84
2021/11/07 04:32:50;;;;;;;6.38;4.90;;;13.50;75.40;;;;;;5054925;28;20132;-83
2021/11/07 04:35:15;;;;;;;5.63;4.55;;;13.50;75.40;;;;;;5054662;28;20052;-83
2021/11/07 04:37:43;;;;;;;6.10;4.25;;;13.50;75.40;;;;;;5054617;28;20041;-83
2021/11/07 04:40:15;;;;;;;6.25;4.70;;;13.60;75.40;;;;;;5070743;28;20096;-83
2021/11/07 04:42:44;;;;;;;6.65;3.92;;;13.50;75.40;;;;;;5053641;28;20132;-83
2021/11/07 04:45:10;;;;;;;4.90;3.97;;;13.50;75.40;;;;;;5054064;28;20112;-83
2021/11/07 04:47:36;;;;;;;5.32;3.83;;;13.60;75.40;;;;;;5053721;28;20127;-83
2021/11/07 04:50:05;;;;;;;5.60;3.72;;;13.60;75.40;;;;;;5037314;28;20040;-82
2021/11/07 04:52:31;;;;;;;6.13;3.70;;;13.60;75.40;;;;;;5070995;28;20122;-83
2021/11/07 04:54:57;;;;;;;5.30;3.30;;;13.60;75.40;;;;;;5054496;28;20036;-82
2021/11/07 04:57:23;;;;;;;4.68;3.25;;;13.60;75.40;;;;;;5053926;28;20444;-83
2021/11/07 04:59:48;;;;;;;5.28;4.07;;;13.50;75.40;;;;;;5053622;28;20025;-83
2021/11/07 05:02:14;;;;;;;5.15;3.30;;;13.50;75.40;;;;;;5053344;28;20059;-82
2021/11/07 05:04:41;;;;;;;5.43;3.40;;;13.50;75.40;;;;;;5053545;28;20029;-83
2021/11/07 05:07:07;;;;;;;5.50;3.53;;;13.60;75.40;;;;;;5053281;28;20029;-83
2021/11/07 05:09:33;;;;;;;4.22;2.90;;;13.60;75.40;;;;;;5053438;28;20086;-81
2021/11/07 05:11:58;;;;;;;6.78;3.50;;;13.50;75.30;;;;;;5036950;28;20463;-83
2021/11/07 05:14:24;;;;;;;4.72;2.97;;;13.50;75.40;;;;;;5053586;28;20071;-83
2021/11/07 05:16:50;;;;;;;4.50;2.80;;;13.50;75.40;;;;;;5053573;28;20040;-84
2021/11/07 05:19:16;;;;;;;4.20;3.00;;;13.50;75.40;;;;;;5054401;28;20465;-82
2021/11/07 05:21:42;;;;;;;5.60;3.35;;;13.50;75.40;;;;;;5053749;28;20106;-83
2021/11/07 05:24:08;;;;;;;4.57;3.03;;;13.50;75.40;;;;;;5054853;28;20389;-82
2021/11/07 05:26:35;;;;;;;4.53;2.80;;;13.50;75.40;;;;;;5036451;28;20057;-82
2021/11/07 05:29:02;;;;;;;4.75;3.03;;;13.50;75.40;;;;;;5053866;28;20057;-83
2021/11/07 05:31:30;;;;;;;3.80;2.80;;;13.50;75.40;;;;;;5053978;28;20040;-82
2021/11/07 05:33:56;;;;;;;5.63;3.20;;;13.60;75.40;;;;;;5054801;28;20029;-82
2021/11/07 05:36:22;;;;;;;4.47;2.75;;;13.50;75.40;;;;;;5069540;28;20036;-83
2021/11/07 05:38:48;;;;;;;4.40;2.83;;;13.50;75.40;;;;;;5052926;28;20041;-82
2021/11/07 05:41:14;;;;;;;4.13;2.70;;;13.50;75.40;;;;;;5052908;28;20087;-83
2021/11/07 05:43:41;;;;;;;4.57;2.75;;;13.50;75.40;;;;;;5052835;28;20029;-82
2021/11/07 05:46:07;;;;;;;5.20;2.60;;;13.50;75.40;;;;;;5036427;28;20036;-82
2021/11/07 05:48:38;;;;;;;4.22;2.45;;;13.60;75.40;;;;;;5052948;28;20032;-82
2021/11/07 05:51:05;;;;;;;3.55;2.53;;;13.50;75.40;;;;;;5054431;28;20036;-83
2021/11/07 05:53:31;;;;;;;3.97;2.60;;;13.60;75.40;;;;;;5053506;28;20032;-82
2021/11/07 05:55:57;;;;;;;4.70;2.60;;;13.50;75.30;;;;;;5036400;28;20037;-83
2021/11/07 05:58:23;;;;;;;4.63;2.60;;;13.50;75.30;;;;;;5052959;28;20033;-81
2021/11/07 06:00:49;;;;;;;3.65;2.35;;;13.50;75.40;;;;;;5054316;28;20040;-82
2021/11/07 06:03:15;;;;;;;5.60;2.60;;;13.50;75.40;;;;;;5053737;28;20462;-81
2021/11/07 06:05:40;;;;;;;3.65;2.30;;;13.50;75.40;;;;;;5052619;28;20036;-82
2021/11/07 06:08:06;;;;;;;3.40;2.05;;;13.50;75.40;;;;;;5052514;28;20124;-82
2021/11/07 06:10:32;;;;;;;3.40;2.17;;;13.50;75.40;;;;;;5052653;28;20545;-82
2021/11/07 06:12:58;;;;;;;4.05;2.90;;;13.50;75.40;;;;;;5054295;28;20124;-82
2021/11/07 06:15:24;;;;;;;3.53;2.40;;;13.50;75.40;;;;;;5035862;28;20059;-82
2021/11/07 06:17:50;;;;;;;3.97;2.30;;;13.50;75.40;;;;;;5052180;28;20127;-82
2021/11/07 06:20:16;;;;;;;4.20;2.20;;;13.50;75.30;;;;;;5036200;28;20056;-81
2021/11/07 06:22:42;;;;;;;2.75;2.00;;;13.50;75.30;;;;;;5052757;28;20466;-82
2021/11/07 06:25:08;;;;;;;4.15;2.05;;;13.50;75.40;;;;;;5035303;28;20116;-83
2021/11/07 06:27:35;;;;;;;3.50;2.00;;;13.50;75.40;;;;;;5035695;28;20112;-82
2021/11/07 06:30:03;;;;;;;2.97;1.90;;;13.50;75.30;;;;;;5052129;28;20461;-81
2021/11/07 06:32:29;;;;;;;3.90;2.25;;;13.50;75.40;;;;;;5052547;28;20029;-82
2021/11/07 06:34:55;;;;;;;2.95;1.80;;;13.50;75.40;;;;;;5054025;28;20032;-82
2021/11/07 06:37:21;;;;;;;4.28;1.95;;;13.40;75.30;;;;;;5056547;28;20152;-82
2021/11/07 06:39:47;;;;;;;3.42;1.75;;;13.40;75.30;;;;;;5057207;28;20457;-83
2021/11/07 06:42:13;;;;;;;3.67;1.75;;;13.50;75.40;;;;;;5057199;28;20021;-82
2021/11/07 06:44:39;;;;;;;4.00;2.20;;;13.40;75.30;;;;;;5073572;28;20040;-82
2021/11/07 06:47:07;;;;;;;3.10;1.80;;;13.40;75.30;;;;;;5056005;28;20029;-82
2021/11/07 06:49:33;;;;;;;4.93;2.10;;;13.40;75.30;;;;;;5057118;28;20486;-82
2021/11/07 06:51:59;;;;;;;4.85;1.95;;;13.40;75.30;;;;;;5056286;28;20025;-82
2021/11/07 06:54:26;;;;;;;2.92;1.90;;;13.40;75.30;;;;;;5039258;28;20424;-82
2021/11/07 06:56:52;;;;;;;3.30;1.67;;;13.40;75.30;;;;;;5056574;28;20032;-82
2021/11/07 06:59:18;;;;;;;2.95;1.90;;;13.40;75.30;;;;;;5072555;28;20045;-82
2021/11/07 07:01:44;;;;;;;4.85;1.75;;;13.40;75.30;;;;;;5056211;28;20482;-83
2021/11/07 07:04:10;;;;;;;4.18;1.90;;;13.40;75.30;;;;;;5056102;28;20033;-82
2021/11/07 07:06:36;;;;;;;5.20;2.28;;;13.30;75.20;;;;;;5039808;28;20029;-81
2021/11/07 07:09:07;;;;;;;2.40;1.70;;;13.30;75.20;;;;;;5056339;28;20481;-81
2021/11/07 07:11:44;;;;;;;2.90;1.63;;;13.30;75.30;;;;;;5073355;28;20053;-82
2021/11/07 07:14:15;;;;;;;3.80;1.50;;;13.30;75.20;;;;;;5056449;28;20033;-81
2021/11/07 07:19:40;;;;;;;3.08;1.75;;;13.20;75.20;;;;;;5056121;28;20041;-81
2021/11/07 07:22:28;;;;;;;3.13;1.52;;;13.30;75.30;;;;;;5059394;28;20119;-81
2021/11/07 07:28:04;;;;;;;2.67;1.45;;;13.20;75.20;;;;;;5057676;28;20053;-81
2021/11/07 07:35:51;;;;;;;3.20;1.60;;;13.10;75.10;;;;;;5056395;28;20511;-82
2021/11/07 07:38:17;;;;;;;2.70;1.50;;;13.10;75.20;;;;;;5056120;28;20033;-86
2021/11/07 07:40:43;;;;;;;2.33;1.60;;;13.10;75.20;;;;;;5057124;28;20078;-81
2021/11/07 07:43:09;;;;;;;2.05;1.38;;;13.10;75.20;;;;;;5057184;28;20399;-81
2021/11/07 07:45:36;;;;;;;4.03;1.50;;;13.10;75.20;;;;;;5056467;28;20033;-82
2021/11/07 07:48:02;;;;;;;3.05;1.48;;;13.10;75.20;;;;;;5039042;28;20037;-81
2021/11/07 07:50:29;;;;;;;4.40;1.63;;;13.10;75.20;;;;;;5057253;28;20043;-82
2021/11/07 07:52:55;;;;;;;3.10;1.70;;;13.00;75.10;;;;;;5055992;28;20029;-82
2021/11/07 07:55:21;;;;;;;4.57;1.70;;;13.00;75.10;;;;;;5055629;28;20037;-82
2021/11/07 07:57:47;;;;;;;3.05;1.50;;;13.00;75.10;;;;;;5056072;28;20041;-81
2021/11/07 08:00:16;;;;;;;3.67;1.98;;;13.00;75.10;;;;;;5055806;28;20035;-82
2021/11/07 08:02:42;;;;;;;3.03;1.60;;;13.00;75.20;;;;;;5055445;28;20029;-82
2021/11/07 08:05:08;;;;;;;2.78;1.48;;;13.00;75.10;;;;;;5054967;28;20490;-82
2021/11/07 08:07:34;;;;;;;3.30;1.50;;;13.00;75.10;;;;;;5054488;28;20055;-81
2021/11/07 08:10:00;;;;;;;3.58;1.67;;;12.90;75.10;;;;;;5055300;28;20147;-82
2021/11/07 08:12:26;;;;;;;2.72;1.40;;;13.00;75.10;;;;;;5054539;28;20029;-82
2021/11/07 08:14:53;;;;;;;3.25;1.42;;;12.90;75.10;;;;;;5071105;28;20021;-81
2021/11/07 08:17:20;;;;;;;2.67;1.50;;;12.90;75.10;;;;;;5037702;28;20029;-82
2021/11/07 08:19:45;;;;;;;3.67;1.60;;;12.90;75.10;;;;;;5054373;28;20408;-82
2021/11/07 08:22:12;;;;;;;2.70;1.50;;;12.90;75.30;;;;;;5054191;28;20132;-81
2021/11/07 08:24:38;;;;;;;3.67;1.65;;;12.90;75.10;;;;;;5055024;28;20472;-82
2021/11/07 08:27:06;;;;;;;2.88;1.45;;;12.90;75.20;;;;;;5054579;28;20048;-82
2021/11/07 08:29:33;;;;;;;4.28;1.60;;;12.90;75.20;;;;;;5054122;28;20041;-82
2021/11/07 08:31:59;;;;;;;2.60;1.50;;;12.90;75.20;;;;;;5054655;28;20517;-82
2021/11/07 08:34:28;;;;;;;2.22;1.20;;;12.90;75.20;;;;;;5055929;28;20025;-81
2021/11/07 08:37:04;;;;;;;2.42;1.30;;;12.90;75.20;;;;;;5054527;28;20029;-81
2021/11/07 08:39:37;;;;;;;4.13;1.70;;;12.80;75.20;;;;;;5053990;28;20131;-81
2021/11/07 08:42:13;;;;;;;3.85;1.50;;;12.80;75.10;;;;;;5054407;28;20037;-81
2021/11/07 09:01:33;;;;;;;3.40;1.73;;;12.80;75.30;;;;;;5054003;28;20039;-80
2021/11/07 09:09:12;;;;;;;4.85;1.50;;;12.80;75.40;;;;;;5053929;28;20072;-82
2021/11/07 09:11:48;;;;;;;4.00;1.60;;;12.80;75.40;;;;;;5054932;28;20073;-83
2021/11/07 09:14:14;;;;;;;3.60;1.35;;;12.80;75.40;;;;;;5054476;28;20056;-85
2021/11/07 09:16:40;;;;;;;1.70;1.27;;;12.80;75.40;;;;;;5055286;28;20061;-83
2021/11/07 09:19:05;;;;;;;3.17;1.40;;;12.90;75.50;;;;;;5053418;28;20060;-84
2021/11/07 09:21:36;;;;;;;3.38;1.38;;;12.90;75.50;;;;;;5054015;28;20060;-84
2021/11/07 09:24:08;;;;;;;2.83;1.50;;;12.90;75.50;;;;;;5054481;28;20031;-85
2021/11/07 09:26:46;;;;;;;2.95;1.52;;;12.90;75.50;;;;;;5037734;28;20060;-84
2021/11/07 09:29:23;;;;;;;2.67;1.40;;;12.90;75.50;;;;;;5053472;28;20079;-83
2021/11/07 09:32:10;;;;;;;2.20;1.38;;;12.90;75.50;;;;;;5069996;28;20041;-84
2021/11/07 09:34:47;;;;;;;3.30;1.48;;;12.90;75.50;;;;;;5055356;28;20048;-83
2021/11/07 09:40:15;;;;;;;3.38;1.30;;;12.90;75.60;;;;;;5052766;28;20037;-83
2021/11/07 09:48:25;;;;;;;2.45;1.30;;;13.00;75.70;;;;;;5052837;28;20037;-84
2021/11/07 09:50:52;;;;;;;4.18;1.38;;;13.00;75.60;;;;;;5053603;28;20036;-84
2021/11/07 09:53:19;;;;;;;3.22;1.42;;;13.00;75.70;;;;;;5054031;28;20029;-84
2021/11/07 09:55:46;;;;;;;2.35;1.30;;;13.00;75.80;;;;;;5053924;28;20094;-85
2021/11/07 09:58:13;;;;;;;4.28;1.58;;;13.00;75.80;;;;;;5037502;28;20037;-83
2021/11/07 10:00:47;;;;;;;3.05;1.40;;;13.00;75.80;;;;;;5037017;28;20214;-81
2021/11/07 10:03:16;;;;;;;3.65;1.33;;;13.10;75.90;;;;;;5054700;28;20103;-81
2021/11/07 10:05:46;;;;;;;3.45;1.33;;;13.10;75.90;;;;;;5052552;28;20021;-86
2021/11/07 10:08:13;;;;;;;3.60;1.50;;;13.10;75.90;;;;;;5052312;28;20029;-80
2021/11/07 10:10:47;;;;;;;2.17;1.38;;;13.10;75.90;;;;;;5054642;28;20117;-81
2021/11/07 10:13:23;;;;;;;2.05;1.55;;;13.10;75.90;;;;;;5090145;28;20041;-81
2021/11/07 10:16:06;;;;;;;2.15;1.42;;;13.20;76.00;;;;;;5058015;28;20091;-80
2021/11/07 10:18:46;;;;;;;3.50;1.80;;;13.10;76.00;;;;;;5057996;28;20068;-85
2021/11/07 10:21:21;;;;;;;4.40;1.30;;;13.20;76.00;;;;;;5057107;28;20045;-82
2021/11/07 10:24:15;;;;;;;3.20;1.30;;;13.20;76.10;;;;;;5056767;28;20025;-80
2021/11/07 10:26:45;;;;;;;3.47;1.30;;;13.20;76.10;;;;;;5055933;28;20163;-82
2021/11/07 10:29:34;;;;;;;3.40;1.20;;;13.30;76.00;;;;;;5056459;28;20109;-81
2021/11/07 10:32:17;;;;;;;3.03;1.30;;;13.30;76.20;;;;;;5056443;28;20060;-79
2021/11/07 10:46:11;;;;;;;4.13;1.30;;;13.30;76.10;;;;;;5057472;28;20030;-84
2021/11/07 10:53:53;;;;;;;4.47;1.60;;;13.40;76.20;;;;;;5058196;28;20037;-84
2021/11/07 10:56:19;;;;;;;4.20;1.48;;;13.40;76.10;;;;;;5056678;28;20041;-83
2021/11/07 10:58:46;;;;;;;3.15;1.38;;;13.40;76.10;;;;;;5056822;28;20029;-84
2021/11/07 11:01:19;;;;;;;4.20;1.40;;;13.40;76.10;;;;;;5056031;28;20040;-83
2021/11/07 11:04:00;;;;;;;4.95;1.60;;;13.40;76.00;;;;;;5056971;28;20123;-81
2021/11/07 11:06:28;;;;;;;4.80;1.50;;;13.40;76.10;;;;;;5040309;28;20124;-83
2021/11/07 11:08:58;;;;;;;3.13;1.60;;;13.50;76.00;;;;;;5056300;28;20533;-85
2021/11/07 11:11:45;;;;;;;2.88;1.38;;;13.50;76.00;;;;;;5056337;28;20469;-82
2021/11/07 11:30:08;;;;;;;3.80;1.23;;;13.60;75.90;;;;;;5055542;28;20033;-80
2021/11/07 11:32:44;;;;;;;4.68;1.73;;;13.60;75.90;;;;;;5055999;28;20128;-78
2021/11/07 11:35:24;;;;;;;3.25;1.17;;;13.60;75.80;;;;;;5073481;28;20052;-80
2021/11/07 11:40:26;;;;;;;2.78;1.25;;;13.70;75.80;;;;;;5054611;28;20483;-80
2021/11/07 11:43:11;;;;;;;4.00;1.63;;;13.70;75.80;;;;;;5055132;28;20044;-80
2021/11/07 11:45:40;;;;;;;;;;;13.70;75.80;;;;;;5056033;28;20029;-79
2021/11/07 11:57:04;;;;;;;2.97;1.30;;;13.80;75.80;;;;;;5055530;28;20048;-80
2021/11/07 12:00:21;;;;;;;3.13;1.17;;;13.80;76.00;;;;;;5044452;28;20504;-80
2021/11/07 12:11:11;;;;;;;4.00;1.63;;;13.90;75.60;;;;;;5055605;28;20365;-82
2021/11/07 12:16:58;;;;;;;3.13;1.20;;;14.00;75.60;;;;;;5045127;28;20056;-80
2021/11/07 12:19:41;;;;;;;2.60;1.40;;;14.00;75.60;;;;;;5055638;28;20040;-80
2021/11/07 12:22:11;;;;;;;4.28;1.50;;;14.00;75.40;;;;;;5054412;28;20465;-80
2021/11/07 12:24:58;;;;;;;3.70;1.50;;;14.00;75.40;;;;;;5054323;28;20102;-80
2021/11/07 12:27:29;;;;;;;2.22;1.20;;;14.00;75.50;;;;;;5056063;28;20365;-80
2021/11/07 12:30:14;;;;;;;2.78;1.30;;;14.00;75.40;;;;;;5055138;28;20505;-80
2021/11/07 12:32:42;;;;;;;3.15;1.17;;;14.10;75.50;;;;;;5054164;28;20039;-80
2021/11/07 12:35:25;;;;;;;3.15;1.38;;;14.10;75.40;;;;;;5053645;28;20104;-79
2021/11/07 12:40:49;;;;;;;3.10;1.30;;;14.10;75.40;;;;;;5055017;28;20036;-82
2021/11/07 12:43:24;;;;;;;3.55;1.55;;;14.10;76.00;;;;;;5054407;28;20072;-79
2021/11/07 12:45:55;;;;;;;1.73;1.08;;;14.10;75.30;;;;;;5054335;28;20036;-80
2021/11/07 12:48:47;;;;;;;2.72;1.45;;;14.10;75.30;;;;;;5053559;28;20040;-79
2021/11/07 12:51:20;;;;;;;3.40;1.38;;;14.10;75.40;;;;;;5054852;28;20040;-78
2021/11/07 12:54:15;;;;;;;3.83;1.50;;;14.10;75.30;;;;;;5054752;28;20036;-79
2021/11/07 12:56:46;;;;;;;3.45;1.27;;;14.10;75.40;;;;;;5040766;28;20110;-78
2021/11/07 12:59:15;;;;;;;2.95;1.23;;;14.10;75.20;;;;;;5054518;28;20032;-79
2021/11/07 13:02:02;;;;;;;3.80;1.38;;;14.10;75.20;;;;;;5054276;28;20036;-78
2021/11/07 13:04:58;;;;;;;3.92;1.70;;;14.10;75.30;;;;;;5055073;28;20033;-78
2021/11/07 13:08:09;;;;;;;3.08;1.70;;;14.10;75.20;;;;;;5087071;28;20074;-79
2021/11/07 13:10:56;;;;;;;4.45;1.50;;;14.10;75.30;;;;;;5035148;28;20469;-78
2021/11/07 13:19:29;;;;;;;3.47;1.30;;;14.10;75.20;;;;;;5015595;28;20401;-78
2021/11/07 13:27:27;;;;;;;4.53;1.40;;;14.10;75.10;;;;;;5052396;28;20045;-78
2021/11/07 13:30:05;;;;;;;2.28;1.30;;;14.10;75.00;;;;;;5053692;28;20037;-78
2021/11/07 13:32:32;;;;;;;3.22;1.30;;;14.10;75.00;;;;;;5054346;28;20033;-80
2021/11/07 13:34:57;;;;;;;3.83;1.60;;;14.10;75.00;;;;;;5053303;28;20189;-78
2021/11/07 13:37:29;;;;;;;3.28;1.50;;;14.10;75.00;;;;;;5054193;28;20447;-78
2021/11/07 13:40:09;;;;;;;3.75;1.42;;;14.20;75.10;;;;;;5053598;28;20043;-78
2021/11/07 13:42:41;;;;;;;3.72;1.45;;;14.10;75.00;;;;;;5053008;28;20091;-78
2021/11/07 13:45:17;;;;;;;3.92;1.60;;;14.20;75.00;;;;;;5053413;28;20021;-78
2021/11/07 13:47:44;;;;;;;3.58;1.42;;;14.20;75.00;;;;;;5053353;28;20477;-79
2021/11/07 13:50:22;;;;;;;4.68;1.50;;;14.20;74.90;;;;;;5052479;28;20052;-79
2021/11/07 13:52:52;;;;;;;3.00;1.42;;;14.20;74.90;;;;;;5052822;28;20514;-80
2021/11/07 13:55:21;;;;;;;2.75;1.25;;;14.20;74.80;;;;;;5052493;28;20017;-79
2021/11/07 13:57:48;;;;;;;4.22;1.40;;;14.20;74.90;;;;;;5052669;28;20070;-80
2021/11/07 14:00:19;;;;;;;5.00;1.65;;;14.20;74.80;;;;;;5052683;28;20534;-81
2021/11/07 14:02:50;;;;;;;2.55;1.20;;;14.20;74.80;;;;;;5052515;28;20029;-80
2021/11/07 14:05:17;;;;;;;4.13;1.83;;;14.20;74.80;;;;;;5070215;28;20029;-81
2021/11/07 14:08:00;;;;;;;2.97;1.40;;;14.20;74.80;;;;;;5052763;28;20078;-82
2021/11/07 14:10:28;;;;;;;3.28;1.40;;;14.30;74.90;;;;;;5051937;28;20036;-81
2021/11/07 14:12:56;;;;;;;5.40;1.77;;;14.30;74.80;;;;;;5070008;28;20041;-80
2021/11/07 14:15:22;;;;;;;4.57;1.50;;;14.30;74.80;;;;;;5052760;28;20033;-80
2021/11/07 14:17:51;;;;;;;3.53;1.50;;;14.30;74.80;;;;;;5052489;28;20025;-80
2021/11/07 14:20:37;;;;;;;4.97;1.73;;;14.30;74.80;;;;;;5052596;28;20096;-79
2021/11/07 14:23:18;;;;;;;5.40;1.75;;;14.30;74.90;;;;;;5052854;28;20032;-80
2021/11/07 14:26:01;;;;;;;5.47;1.70;;;14.30;74.70;;;;;;5052153;28;20049;-80
2021/11/07 14:28:34;;;;;;;5.25;1.50;;;14.30;74.80;;;;;;5052447;28;20029;-81
2021/11/07 14:31:02;;;;;;;4.22;1.70;;;14.30;74.70;;;;;;5052536;28;20029;-82
2021/11/07 14:33:38;;;;;;;2.92;1.40;;;14.30;74.70;;;;;;5052701;28;20033;-81
2021/11/07 14:39:34;;;;;;;4.53;1.80;;;14.40;74.80;;;;;;5051727;28;20155;-78
2021/11/07 14:42:10;;;;;;;4.88;1.75;;;14.30;74.70;;;;;;5069130;28;20037;-79
2021/11/07 14:44:45;;;;;;;6.35;1.35;;;14.40;74.70;;;;;;5068879;28;20029;-79
2021/11/07 14:47:22;;;;;;;4.78;1.65;;;14.30;74.70;;;;;;5069261;28;20029;-80
2021/11/07 14:50:11;;;;;;;3.05;1.30;;;14.40;74.80;;;;;;5051686;28;20167;-80
2021/11/07 14:55:24;;;;;;;4.65;1.40;;;14.40;74.70;;;;;;5051646;28;20512;-79
2021/11/07 14:58:16;;;;;;;4.93;1.80;;;14.40;74.90;;;;;;5056273;28;20479;-79
2021/11/07 15:01:00;;;;;;;4.50;1.60;;;14.40;74.80;;;;;;5055865;28;20445;-79
2021/11/07 15:03:34;;;;;;;4.85;1.42;;;14.40;74.70;;;;;;5056781;28;20033;-81
2021/11/07 15:06:28;;;;;;;4.00;1.60;;;14.30;74.60;;;;;;5056350;28;20033;-80
2021/11/07 15:08:57;;;;;;;5.80;1.90;;;14.30;74.70;;;;;;5055392;28;20036;-79
2021/11/07 15:14:24;;;;;;;4.53;1.63;;;14.30;74.60;;;;;;5055583;28;20033;-80
2021/11/07 15:17:09;;;;;;;4.82;1.63;;;14.30;74.60;;;;;;5057097;28;20488;-81
2021/11/07 15:24:42;;;;;;;2.90;1.38;;;14.20;74.50;;;;;;5055314;28;20090;-80
2021/11/07 15:27:19;;;;;;;3.55;1.25;;;14.20;74.60;;;;;;5054945;28;20132;-81
2021/11/07 15:29:58;;;;;;;4.57;1.63;;;14.20;74.60;;;;;;5054856;28;20029;-81
2021/11/07 15:32:37;;;;;;;3.17;1.33;;;14.20;74.50;;;;;;5071413;28;20033;-81
2021/11/07 15:35:19;;;;;;;3.65;1.52;;;14.20;74.50;;;;;;5054332;28;20021;-78
2021/11/07 15:37:46;;;;;;;3.30;1.77;;;14.20;74.60;;;;;;5055501;28;20477;-80
2021/11/07 15:40:13;;;;;;;3.38;1.50;;;14.20;74.60;;;;;;5054202;28;20036;-80
2021/11/07 15:42:41;;;;;;;4.03;1.60;;;14.10;74.50;;;;;;5055700;28;20044;-80
2021/11/07 15:45:13;;;;;;;3.92;1.50;;;14.10;74.50;;;;;;5055566;28;20033;-80
2021/11/07 15:47:49;;;;;;;3.80;1.60;;;14.10;74.50;;;;;;5055590;28;20041;-80